sensor_id;sensor_type;location;lat;lon;timestamp;P1;durP1;ratioP1;P2;durP2;ratioP2
7965;SDS011;4028;43.272;26.932;2023-04-16T00:00:30;12.83;;;5.90;;
7965;SDS011;4028;43.272;26.932;2023-04-16T00:02:56;10.77;;;6.60;;
7965;SDS011;4028;43.272;26.932;2023-04-16T00:05:21;10.93;;;5.93;;
7965;SDS011;4028;43.272;26.932;2023-04-16T00:07:47;11.97;;;6.33;;
7965;SDS011;4028;43.272;26.932;2023-04-16T00:10:12;14.50;;;7.70;;
7965;SDS011;4028;43.272;26.932;2023-04-16T00:12:38;8.83;;;6.60;;
7965;SDS011;4028;43.272;26.932;2023-04-16T00:15:03;11.80;;;6.50;;
7965;SDS011;4028;43.272;26.932;2023-04-16T00:17:29;14.00;;;7.10;;
7965;SDS011;4028;43.272;26.932;2023-04-16T00:19:55;16.73;;;8.50;;
7965;SDS011;4028;43.272;26.932;2023-04-16T00:22:20;13.77;;;6.37;;
7965;SDS011;4028;43.272;26.932;2023-04-16T00:24:46;12.73;;;6.20;;
7965;SDS011;4028;43.272;26.932;2023-04-16T00:27:11;11.70;;;6.17;;
7965;SDS011;4028;43.272;26.932;2023-04-16T00:29:36;12.43;;;6.13;;
7965;SDS011;4028;43.272;26.932;2023-04-16T00:32:02;9.17;;;5.23;;
7965;SDS011;4028;43.272;26.932;2023-04-16T00:37:49;10.87;;;5.17;;
7965;SDS011;4028;43.272;26.932;2023-04-16T00:40:15;11.00;;;6.23;;
7965;SDS011;4028;43.272;26.932;2023-04-16T00:42:40;13.37;;;6.40;;
7965;SDS011;4028;43.272;26.932;2023-04-16T00:45:06;13.90;;;6.60;;
7965;SDS011;4028;43.272;26.932;2023-04-16T00:47:32;9.57;;;5.90;;
7965;SDS011;4028;43.272;26.932;2023-04-16T00:49:58;12.80;;;6.20;;
7965;SDS011;4028;43.272;26.932;2023-04-16T00:52:24;11.23;;;6.93;;
7965;SDS011;4028;43.272;26.932;2023-04-16T00:54:50;9.27;;;5.70;;
7965;SDS011;4028;43.272;26.932;2023-04-16T00:57:16;13.03;;;6.97;;
7965;SDS011;4028;43.272;26.932;2023-04-16T00:59:41;7.97;;;5.77;;
7965;SDS011;4028;43.272;26.932;2023-04-16T01:02:07;10.47;;;5.90;;
7965;SDS011;4028;43.272;26.932;2023-04-16T01:04:33;13.10;;;6.10;;
7965;SDS011;4028;43.272;26.932;2023-04-16T01:06:59;12.30;;;5.83;;
7965;SDS011;4028;43.272;26.932;2023-04-16T01:09:24;9.33;;;6.23;;
7965;SDS011;4028;43.272;26.932;2023-04-16T01:11:50;12.90;;;5.80;;
7965;SDS011;4028;43.272;26.932;2023-04-16T01:14:15;9.90;;;5.90;;
7965;SDS011;4028;43.272;26.932;2023-04-16T01:16:41;11.87;;;6.80;;
7965;SDS011;4028;43.272;26.932;2023-04-16T01:19:06;11.03;;;6.20;;
7965;SDS011;4028;43.272;26.932;2023-04-16T01:21:32;16.93;;;6.97;;
7965;SDS011;4028;43.272;26.932;2023-04-16T01:24:01;13.10;;;6.27;;
7965;SDS011;4028;43.272;26.932;2023-04-16T01:26:28;15.10;;;6.23;;
7965;SDS011;4028;43.272;26.932;2023-04-16T01:28:53;11.40;;;6.53;;
7965;SDS011;4028;43.272;26.932;2023-04-16T01:31:19;12.43;;;6.17;;
7965;SDS011;4028;43.272;26.932;2023-04-16T01:33:44;14.07;;;6.60;;
7965;SDS011;4028;43.272;26.932;2023-04-16T01:36:10;10.70;;;6.07;;
7965;SDS011;4028;43.272;26.932;2023-04-16T01:38:35;13.67;;;6.37;;
7965;SDS011;4028;43.272;26.932;2023-04-16T01:41:01;11.33;;;5.53;;
7965;SDS011;4028;43.272;26.932;2023-04-16T01:43:26;11.43;;;5.87;;
7965;SDS011;4028;43.272;26.932;2023-04-16T01:45:53;10.10;;;5.80;;
7965;SDS011;4028;43.272;26.932;2023-04-16T01:48:40;10.43;;;6.47;;
7965;SDS011;4028;43.272;26.932;2023-04-16T01:51:06;13.37;;;7.47;;
7965;SDS011;4028;43.272;26.932;2023-04-16T01:53:31;12.87;;;6.50;;
7965;SDS011;4028;43.272;26.932;2023-04-16T01:55:57;15.17;;;7.03;;
7965;SDS011;4028;43.272;26.932;2023-04-16T01:58:22;14.57;;;6.77;;
7965;SDS011;4028;43.272;26.932;2023-04-16T02:00:48;12.80;;;7.30;;
7965;SDS011;4028;43.272;26.932;2023-04-16T02:03:14;14.77;;;7.80;;
7965;SDS011;4028;43.272;26.932;2023-04-16T02:05:41;17.43;;;7.83;;
7965;SDS011;4028;43.272;26.932;2023-04-16T02:08:07;14.47;;;7.70;;
7965;SDS011;4028;43.272;26.932;2023-04-16T02:10:32;19.90;;;8.93;;
7965;SDS011;4028;43.272;26.932;2023-04-16T02:12:57;20.50;;;9.47;;
7965;SDS011;4028;43.272;26.932;2023-04-16T02:15:23;15.87;;;8.97;;
7965;SDS011;4028;43.272;26.932;2023-04-16T02:17:49;15.70;;;8.70;;
7965;SDS011;4028;43.272;26.932;2023-04-16T02:20:19;17.73;;;8.93;;
7965;SDS011;4028;43.272;26.932;2023-04-16T02:22:44;15.07;;;9.17;;
7965;SDS011;4028;43.272;26.932;2023-04-16T02:25:10;16.43;;;9.53;;
7965;SDS011;4028;43.272;26.932;2023-04-16T02:27:35;16.63;;;9.57;;
7965;SDS011;4028;43.272;26.932;2023-04-16T02:30:01;18.10;;;10.17;;
7965;SDS011;4028;43.272;26.932;2023-04-16T02:32:28;18.03;;;9.87;;
7965;SDS011;4028;43.272;26.932;2023-04-16T02:34:54;20.17;;;9.57;;
7965;SDS011;4028;43.272;26.932;2023-04-16T02:37:21;16.97;;;9.43;;
7965;SDS011;4028;43.272;26.932;2023-04-16T02:39:47;19.63;;;9.70;;
7965;SDS011;4028;43.272;26.932;2023-04-16T02:42:14;16.63;;;10.03;;
7965;SDS011;4028;43.272;26.932;2023-04-16T02:44:40;16.40;;;9.17;;
7965;SDS011;4028;43.272;26.932;2023-04-16T02:47:06;19.70;;;10.17;;
7965;SDS011;4028;43.272;26.932;2023-04-16T02:49:31;17.47;;;10.03;;
7965;SDS011;4028;43.272;26.932;2023-04-16T02:51:57;20.40;;;9.07;;
7965;SDS011;4028;43.272;26.932;2023-04-16T02:54:22;16.67;;;9.47;;
7965;SDS011;4028;43.272;26.932;2023-04-16T02:56:48;19.47;;;10.30;;
7965;SDS011;4028;43.272;26.932;2023-04-16T02:59:13;24.17;;;10.27;;
7965;SDS011;4028;43.272;26.932;2023-04-16T03:01:39;14.93;;;9.70;;
7965;SDS011;4028;43.272;26.932;2023-04-16T03:04:04;13.07;;;8.97;;
7965;SDS011;4028;43.272;26.932;2023-04-16T03:06:30;18.40;;;9.10;;
7965;SDS011;4028;43.272;26.932;2023-04-16T03:08:55;24.57;;;9.00;;
7965;SDS011;4028;43.272;26.932;2023-04-16T03:11:21;22.60;;;9.87;;
7965;SDS011;4028;43.272;26.932;2023-04-16T03:13:46;16.60;;;9.17;;
7965;SDS011;4028;43.272;26.932;2023-04-16T03:16:12;16.53;;;8.63;;
7965;SDS011;4028;43.272;26.932;2023-04-16T03:18:37;21.23;;;9.17;;
7965;SDS011;4028;43.272;26.932;2023-04-16T03:21:03;18.90;;;8.80;;
7965;SDS011;4028;43.272;26.932;2023-04-16T03:23:29;13.80;;;8.93;;
7965;SDS011;4028;43.272;26.932;2023-04-16T03:25:54;18.20;;;8.47;;
7965;SDS011;4028;43.272;26.932;2023-04-16T03:28:20;15.60;;;8.70;;
7965;SDS011;4028;43.272;26.932;2023-04-16T03:30:49;21.43;;;10.07;;
7965;SDS011;4028;43.272;26.932;2023-04-16T03:33:16;15.60;;;9.23;;
7965;SDS011;4028;43.272;26.932;2023-04-16T03:35:42;15.00;;;8.80;;
7965;SDS011;4028;43.272;26.932;2023-04-16T03:38:07;22.83;;;9.50;;
7965;SDS011;4028;43.272;26.932;2023-04-16T03:40:33;18.13;;;8.80;;
7965;SDS011;4028;43.272;26.932;2023-04-16T03:42:58;18.73;;;9.27;;
7965;SDS011;4028;43.272;26.932;2023-04-16T03:45:24;18.40;;;9.33;;
7965;SDS011;4028;43.272;26.932;2023-04-16T03:47:49;18.33;;;8.77;;
7965;SDS011;4028;43.272;26.932;2023-04-16T03:50:19;19.77;;;9.73;;
7965;SDS011;4028;43.272;26.932;2023-04-16T03:52:45;17.57;;;9.23;;
7965;SDS011;4028;43.272;26.932;2023-04-16T03:55:13;22.00;;;9.60;;
7965;SDS011;4028;43.272;26.932;2023-04-16T03:57:38;21.20;;;10.27;;
7965;SDS011;4028;43.272;26.932;2023-04-16T04:00:04;22.47;;;9.53;;
7965;SDS011;4028;43.272;26.932;2023-04-16T04:02:30;16.40;;;9.30;;
7965;SDS011;4028;43.272;26.932;2023-04-16T04:04:55;18.47;;;9.63;;
7965;SDS011;4028;43.272;26.932;2023-04-16T04:07:21;16.13;;;8.83;;
7965;SDS011;4028;43.272;26.932;2023-04-16T04:09:46;27.03;;;9.57;;
7965;SDS011;4028;43.272;26.932;2023-04-16T04:12:12;19.07;;;9.30;;
7965;SDS011;4028;43.272;26.932;2023-04-16T04:14:37;21.20;;;10.07;;
7965;SDS011;4028;43.272;26.932;2023-04-16T04:17:07;18.60;;;9.37;;
7965;SDS011;4028;43.272;26.932;2023-04-16T04:19:33;17.37;;;9.43;;
7965;SDS011;4028;43.272;26.932;2023-04-16T04:21:58;19.83;;;9.10;;
7965;SDS011;4028;43.272;26.932;2023-04-16T04:24:24;17.00;;;9.03;;
7965;SDS011;4028;43.272;26.932;2023-04-16T04:26:51;18.63;;;8.83;;
7965;SDS011;4028;43.272;26.932;2023-04-16T04:29:16;18.17;;;9.90;;
7965;SDS011;4028;43.272;26.932;2023-04-16T04:31:42;13.47;;;9.17;;
7965;SDS011;4028;43.272;26.932;2023-04-16T04:34:07;18.63;;;9.33;;
7965;SDS011;4028;43.272;26.932;2023-04-16T04:36:32;19.13;;;9.63;;
7965;SDS011;4028;43.272;26.932;2023-04-16T04:38:58;19.50;;;9.43;;
7965;SDS011;4028;43.272;26.932;2023-04-16T04:41:23;23.20;;;9.70;;
7965;SDS011;4028;43.272;26.932;2023-04-16T04:43:50;16.93;;;9.90;;
7965;SDS011;4028;43.272;26.932;2023-04-16T04:46:16;21.00;;;10.97;;
7965;SDS011;4028;43.272;26.932;2023-04-16T04:48:41;23.30;;;12.13;;
7965;SDS011;4028;43.272;26.932;2023-04-16T04:51:07;19.20;;;11.83;;
7965;SDS011;4028;43.272;26.932;2023-04-16T04:53:32;27.73;;;12.80;;
7965;SDS011;4028;43.272;26.932;2023-04-16T04:55:58;19.20;;;11.33;;
7965;SDS011;4028;43.272;26.932;2023-04-16T04:58:23;22.27;;;12.97;;
7965;SDS011;4028;43.272;26.932;2023-04-16T05:00:49;24.17;;;13.73;;
7965;SDS011;4028;43.272;26.932;2023-04-16T05:03:18;22.53;;;13.67;;
7965;SDS011;4028;43.272;26.932;2023-04-16T05:05:45;24.23;;;13.47;;
7965;SDS011;4028;43.272;26.932;2023-04-16T05:08:11;31.23;;;14.10;;
7965;SDS011;4028;43.272;26.932;2023-04-16T05:10:37;19.00;;;11.93;;
7965;SDS011;4028;43.272;26.932;2023-04-16T05:13:02;26.73;;;10.50;;
7965;SDS011;4028;43.272;26.932;2023-04-16T05:15:28;20.73;;;10.87;;
7965;SDS011;4028;43.272;26.932;2023-04-16T05:17:53;25.73;;;11.63;;
7965;SDS011;4028;43.272;26.932;2023-04-16T05:20:20;26.47;;;11.67;;
7965;SDS011;4028;43.272;26.932;2023-04-16T05:22:48;23.00;;;11.30;;
7965;SDS011;4028;43.272;26.932;2023-04-16T05:25:14;19.07;;;10.53;;
7965;SDS011;4028;43.272;26.932;2023-04-16T05:27:41;19.73;;;10.23;;
7965;SDS011;4028;43.272;26.932;2023-04-16T05:30:06;22.93;;;10.10;;
7965;SDS011;4028;43.272;26.932;2023-04-16T05:32:32;15.63;;;10.47;;
7965;SDS011;4028;43.272;26.932;2023-04-16T05:34:58;20.53;;;11.20;;
7965;SDS011;4028;43.272;26.932;2023-04-16T05:37:23;18.87;;;9.27;;
7965;SDS011;4028;43.272;26.932;2023-04-16T05:39:49;15.03;;;8.40;;
7965;SDS011;4028;43.272;26.932;2023-04-16T05:42:15;15.17;;;8.00;;
7965;SDS011;4028;43.272;26.932;2023-04-16T05:44:40;16.63;;;8.20;;
7965;SDS011;4028;43.272;26.932;2023-04-16T05:47:06;19.33;;;8.27;;
7965;SDS011;4028;43.272;26.932;2023-04-16T05:49:33;21.03;;;8.30;;
7965;SDS011;4028;43.272;26.932;2023-04-16T05:52:00;16.43;;;8.17;;
7965;SDS011;4028;43.272;26.932;2023-04-16T05:54:25;24.47;;;9.07;;
7965;SDS011;4028;43.272;26.932;2023-04-16T05:56:51;14.60;;;8.80;;
7965;SDS011;4028;43.272;26.932;2023-04-16T05:59:16;16.70;;;7.63;;
7965;SDS011;4028;43.272;26.932;2023-04-16T06:01:42;17.93;;;8.70;;
7965;SDS011;4028;43.272;26.932;2023-04-16T06:04:07;16.03;;;7.67;;
7965;SDS011;4028;43.272;26.932;2023-04-16T06:06:33;14.47;;;7.70;;
7965;SDS011;4028;43.272;26.932;2023-04-16T06:08:58;15.80;;;7.77;;
7965;SDS011;4028;43.272;26.932;2023-04-16T06:11:24;18.47;;;7.93;;
7965;SDS011;4028;43.272;26.932;2023-04-16T06:13:51;15.73;;;7.73;;
7965;SDS011;4028;43.272;26.932;2023-04-16T06:16:16;14.90;;;7.67;;
7965;SDS011;4028;43.272;26.932;2023-04-16T06:18:42;14.37;;;7.53;;
7965;SDS011;4028;43.272;26.932;2023-04-16T06:21:07;15.93;;;7.60;;
7965;SDS011;4028;43.272;26.932;2023-04-16T06:23:33;10.87;;;7.60;;
7965;SDS011;4028;43.272;26.932;2023-04-16T06:25:58;15.27;;;7.63;;
7965;SDS011;4028;43.272;26.932;2023-04-16T06:28:24;17.10;;;8.10;;
7965;SDS011;4028;43.272;26.932;2023-04-16T06:30:49;16.90;;;9.57;;
7965;SDS011;4028;43.272;26.932;2023-04-16T06:33:15;19.20;;;8.30;;
7965;SDS011;4028;43.272;26.932;2023-04-16T06:35:40;14.60;;;8.20;;
7965;SDS011;4028;43.272;26.932;2023-04-16T06:38:06;19.30;;;8.03;;
7965;SDS011;4028;43.272;26.932;2023-04-16T06:40:31;15.60;;;7.37;;
7965;SDS011;4028;43.272;26.932;2023-04-16T06:42:57;12.90;;;7.30;;
7965;SDS011;4028;43.272;26.932;2023-04-16T06:45:22;14.27;;;7.33;;
7965;SDS011;4028;43.272;26.932;2023-04-16T06:47:48;14.60;;;8.30;;
7965;SDS011;4028;43.272;26.932;2023-04-16T06:50:14;12.23;;;7.43;;
7965;SDS011;4028;43.272;26.932;2023-04-16T06:52:40;16.47;;;7.73;;
7965;SDS011;4028;43.272;26.932;2023-04-16T06:55:06;17.90;;;8.30;;
7965;SDS011;4028;43.272;26.932;2023-04-16T06:57:33;17.27;;;7.43;;
7965;SDS011;4028;43.272;26.932;2023-04-16T06:59:59;16.03;;;7.40;;
7965;SDS011;4028;43.272;26.932;2023-04-16T07:02:25;19.13;;;8.37;;
7965;SDS011;4028;43.272;26.932;2023-04-16T07:04:50;19.03;;;6.80;;
7965;SDS011;4028;43.272;26.932;2023-04-16T07:07:16;18.17;;;7.50;;
7965;SDS011;4028;43.272;26.932;2023-04-16T07:09:42;13.37;;;6.60;;
7965;SDS011;4028;43.272;26.932;2023-04-16T07:12:07;16.03;;;7.27;;
7965;SDS011;4028;43.272;26.932;2023-04-16T07:14:33;19.03;;;8.10;;
7965;SDS011;4028;43.272;26.932;2023-04-16T07:16:59;22.50;;;8.03;;
7965;SDS011;4028;43.272;26.932;2023-04-16T07:19:24;16.53;;;8.27;;
7965;SDS011;4028;43.272;26.932;2023-04-16T07:21:54;13.67;;;7.43;;
7965;SDS011;4028;43.272;26.932;2023-04-16T07:24:20;18.17;;;7.50;;
7965;SDS011;4028;43.272;26.932;2023-04-16T07:26:45;15.67;;;7.37;;
7965;SDS011;4028;43.272;26.932;2023-04-16T07:29:11;13.33;;;7.80;;
7965;SDS011;4028;43.272;26.932;2023-04-16T07:31:36;18.40;;;7.57;;
7965;SDS011;4028;43.272;26.932;2023-04-16T07:34:02;14.43;;;6.70;;
7965;SDS011;4028;43.272;26.932;2023-04-16T07:36:28;19.87;;;7.33;;
7965;SDS011;4028;43.272;26.932;2023-04-16T07:38:53;18.67;;;7.33;;
7965;SDS011;4028;43.272;26.932;2023-04-16T07:41:20;15.07;;;7.20;;
7965;SDS011;4028;43.272;26.932;2023-04-16T07:43:45;14.27;;;7.20;;
7965;SDS011;4028;43.272;26.932;2023-04-16T07:46:11;12.38;;;6.65;;
7965;SDS011;4028;43.272;26.932;2023-04-16T07:48:36;19.67;;;7.23;;
7965;SDS011;4028;43.272;26.932;2023-04-16T07:51:02;15.50;;;7.10;;
7965;SDS011;4028;43.272;26.932;2023-04-16T07:53:27;14.95;;;6.35;;
7965;SDS011;4028;43.272;26.932;2023-04-16T07:55:53;17.77;;;6.63;;
7965;SDS011;4028;43.272;26.932;2023-04-16T07:58:18;17.67;;;6.57;;
7965;SDS011;4028;43.272;26.932;2023-04-16T08:00:44;11.43;;;6.95;;
7965;SDS011;4028;43.272;26.932;2023-04-16T08:03:09;15.35;;;6.75;;
7965;SDS011;4028;43.272;26.932;2023-04-16T08:05:35;13.52;;;6.47;;
7965;SDS011;4028;43.272;26.932;2023-04-16T08:08:00;13.40;;;6.90;;
7965;SDS011;4028;43.272;26.932;2023-04-16T08:10:26;14.07;;;6.40;;
7965;SDS011;4028;43.272;26.932;2023-04-16T08:12:52;13.88;;;6.60;;
7965;SDS011;4028;43.272;26.932;2023-04-16T08:15:18;15.07;;;6.78;;
7965;SDS011;4028;43.272;26.932;2023-04-16T08:17:43;13.13;;;7.35;;
7965;SDS011;4028;43.272;26.932;2023-04-16T08:20:09;13.75;;;6.50;;
7965;SDS011;4028;43.272;26.932;2023-04-16T08:22:35;17.80;;;6.78;;
7965;SDS011;4028;43.272;26.932;2023-04-16T08:25:01;18.53;;;6.40;;
7965;SDS011;4028;43.272;26.932;2023-04-16T08:27:27;14.63;;;6.63;;
7965;SDS011;4028;43.272;26.932;2023-04-16T08:29:53;12.60;;;6.60;;
7965;SDS011;4028;43.272;26.932;2023-04-16T08:32:18;16.00;;;6.30;;
7965;SDS011;4028;43.272;26.932;2023-04-16T08:34:44;14.60;;;6.18;;
7965;SDS011;4028;43.272;26.932;2023-04-16T08:37:10;17.20;;;7.13;;
7965;SDS011;4028;43.272;26.932;2023-04-16T08:39:35;22.38;;;7.53;;
7965;SDS011;4028;43.272;26.932;2023-04-16T08:42:03;15.00;;;7.03;;
7965;SDS011;4028;43.272;26.932;2023-04-16T08:44:33;17.23;;;6.70;;
7965;SDS011;4028;43.272;26.932;2023-04-16T08:47:07;15.60;;;7.97;;
7965;SDS011;4028;43.272;26.932;2023-04-16T08:49:36;14.02;;;6.70;;
7965;SDS011;4028;43.272;26.932;2023-04-16T08:52:08;18.80;;;6.97;;
7965;SDS011;4028;43.272;26.932;2023-04-16T08:54:47;14.93;;;6.75;;
7965;SDS011;4028;43.272;26.932;2023-04-16T08:57:20;9.35;;;6.07;;
7965;SDS011;4028;43.272;26.932;2023-04-16T08:59:48;14.90;;;7.18;;
7965;SDS011;4028;43.272;26.932;2023-04-16T09:02:15;11.18;;;6.22;;
7965;SDS011;4028;43.272;26.932;2023-04-16T09:04:41;15.15;;;6.45;;
7965;SDS011;4028;43.272;26.932;2023-04-16T09:07:07;16.05;;;6.65;;
7965;SDS011;4028;43.272;26.932;2023-04-16T09:09:34;13.93;;;5.90;;
7965;SDS011;4028;43.272;26.932;2023-04-16T09:12:02;12.50;;;6.53;;
7965;SDS011;4028;43.272;26.932;2023-04-16T09:14:28;13.15;;;6.93;;
7965;SDS011;4028;43.272;26.932;2023-04-16T09:16:54;15.02;;;6.70;;
7965;SDS011;4028;43.272;26.932;2023-04-16T09:19:21;14.95;;;6.05;;
7965;SDS011;4028;43.272;26.932;2023-04-16T09:21:47;13.35;;;6.22;;
7965;SDS011;4028;43.272;26.932;2023-04-16T09:24:13;11.48;;;7.28;;
7965;SDS011;4028;43.272;26.932;2023-04-16T09:26:42;19.15;;;6.32;;
7965;SDS011;4028;43.272;26.932;2023-04-16T09:29:08;11.60;;;6.57;;
7965;SDS011;4028;43.272;26.932;2023-04-16T09:31:33;12.07;;;6.00;;
7965;SDS011;4028;43.272;26.932;2023-04-16T09:34:06;12.98;;;6.78;;
7965;SDS011;4028;43.272;26.932;2023-04-16T09:36:33;20.33;;;7.18;;
7965;SDS011;4028;43.272;26.932;2023-04-16T09:38:59;11.70;;;6.93;;
7965;SDS011;4028;43.272;26.932;2023-04-16T09:41:26;14.63;;;6.53;;
7965;SDS011;4028;43.272;26.932;2023-04-16T09:43:54;18.52;;;7.60;;
7965;SDS011;4028;43.272;26.932;2023-04-16T09:46:20;12.05;;;5.45;;
7965;SDS011;4028;43.272;26.932;2023-04-16T09:48:46;9.87;;;6.00;;
7965;SDS011;4028;43.272;26.932;2023-04-16T09:51:12;12.43;;;6.73;;
7965;SDS011;4028;43.272;26.932;2023-04-16T09:53:37;11.20;;;7.13;;
7965;SDS011;4028;43.272;26.932;2023-04-16T09:56:04;11.80;;;6.93;;
7965;SDS011;4028;43.272;26.932;2023-04-16T09:58:30;12.73;;;8.53;;
7965;SDS011;4028;43.272;26.932;2023-04-16T10:03:33;20.60;;;9.10;;
7965;SDS011;4028;43.272;26.932;2023-04-16T10:06:13;14.10;;;7.67;;
7965;SDS011;4028;43.272;26.932;2023-04-16T10:08:46;11.53;;;7.17;;
7965;SDS011;4028;43.272;26.932;2023-04-16T10:11:17;8.87;;;6.07;;
7965;SDS011;4028;43.272;26.932;2023-04-16T10:13:44;7.93;;;6.30;;
7965;SDS011;4028;43.272;26.932;2023-04-16T10:16:10;13.93;;;8.50;;
7965;SDS011;4028;43.272;26.932;2023-04-16T10:18:39;20.37;;;10.33;;
7965;SDS011;4028;43.272;26.932;2023-04-16T10:21:07;10.83;;;7.30;;
7965;SDS011;4028;43.272;26.932;2023-04-16T10:23:35;10.83;;;7.33;;
7965;SDS011;4028;43.272;26.932;2023-04-16T10:26:03;7.47;;;5.77;;
7965;SDS011;4028;43.272;26.932;2023-04-16T10:28:29;7.10;;;4.73;;
7965;SDS011;4028;43.272;26.932;2023-04-16T10:30:58;5.90;;;4.30;;
7965;SDS011;4028;43.272;26.932;2023-04-16T10:33:29;6.07;;;4.77;;
7965;SDS011;4028;43.272;26.932;2023-04-16T10:38:51;9.53;;;6.57;;
7965;SDS011;4028;43.272;26.932;2023-04-16T10:41:20;17.70;;;9.57;;
7965;SDS011;4028;43.272;26.932;2023-04-16T10:43:47;12.83;;;7.80;;
7965;SDS011;4028;43.272;26.932;2023-04-16T10:48:53;13.13;;;7.10;;
7965;SDS011;4028;43.272;26.932;2023-04-16T10:56:36;13.10;;;5.77;;
7965;SDS011;4028;43.272;26.932;2023-04-16T10:59:05;5.80;;;3.93;;
7965;SDS011;4028;43.272;26.932;2023-04-16T11:01:39;5.47;;;4.40;;
7965;SDS011;4028;43.272;26.932;2023-04-16T11:12:11;4.57;;;3.60;;
7965;SDS011;4028;43.272;26.932;2023-04-16T11:15:10;4.00;;;3.60;;
7965;SDS011;4028;43.272;26.932;2023-04-16T11:17:38;5.87;;;3.93;;
7965;SDS011;4028;43.272;26.932;2023-04-16T11:20:06;4.27;;;3.53;;
7965;SDS011;4028;43.272;26.932;2023-04-16T11:22:34;8.43;;;3.77;;
7965;SDS011;4028;43.272;26.932;2023-04-16T11:25:01;6.53;;;3.70;;
7965;SDS011;4028;43.272;26.932;2023-04-16T11:27:26;4.73;;;3.43;;
7965;SDS011;4028;43.272;26.932;2023-04-16T11:30:01;5.00;;;3.37;;
7965;SDS011;4028;43.272;26.932;2023-04-16T11:32:35;3.77;;;3.17;;
7965;SDS011;4028;43.272;26.932;2023-04-16T11:35:04;6.30;;;3.73;;
7965;SDS011;4028;43.272;26.932;2023-04-16T11:37:41;7.43;;;3.97;;
7965;SDS011;4028;43.272;26.932;2023-04-16T11:40:07;5.97;;;4.27;;
7965;SDS011;4028;43.272;26.932;2023-04-16T11:42:34;8.23;;;3.87;;
7965;SDS011;4028;43.272;26.932;2023-04-16T11:45:07;6.83;;;4.10;;
7965;SDS011;4028;43.272;26.932;2023-04-16T11:50:19;7.00;;;4.43;;
7965;SDS011;4028;43.272;26.932;2023-04-16T11:52:47;7.57;;;4.57;;
7965;SDS011;4028;43.272;26.932;2023-04-16T11:55:13;8.97;;;4.87;;
7965;SDS011;4028;43.272;26.932;2023-04-16T11:57:39;7.50;;;4.93;;
7965;SDS011;4028;43.272;26.932;2023-04-16T12:00:05;8.63;;;4.87;;
7965;SDS011;4028;43.272;26.932;2023-04-16T12:02:41;8.63;;;5.43;;
7965;SDS011;4028;43.272;26.932;2023-04-16T12:05:32;6.40;;;4.30;;
7965;SDS011;4028;43.272;26.932;2023-04-16T12:08:02;6.53;;;4.80;;
7965;SDS011;4028;43.272;26.932;2023-04-16T12:10:29;6.77;;;5.00;;
7965;SDS011;4028;43.272;26.932;2023-04-16T12:13:12;7.77;;;4.93;;
7965;SDS011;4028;43.272;26.932;2023-04-16T12:15:42;8.83;;;5.07;;
7965;SDS011;4028;43.272;26.932;2023-04-16T12:18:08;7.67;;;5.07;;
7965;SDS011;4028;43.272;26.932;2023-04-16T12:20:40;5.70;;;4.73;;
7965;SDS011;4028;43.272;26.932;2023-04-16T12:23:06;6.37;;;4.80;;
7965;SDS011;4028;43.272;26.932;2023-04-16T12:25:35;5.63;;;5.10;;
7965;SDS011;4028;43.272;26.932;2023-04-16T12:28:01;6.43;;;5.00;;
7965;SDS011;4028;43.272;26.932;2023-04-16T12:30:27;6.57;;;4.53;;
7965;SDS011;4028;43.272;26.932;2023-04-16T12:33:12;6.10;;;4.37;;
7965;SDS011;4028;43.272;26.932;2023-04-16T12:35:42;8.53;;;4.83;;
7965;SDS011;4028;43.272;26.932;2023-04-16T12:38:08;6.70;;;5.23;;
7965;SDS011;4028;43.272;26.932;2023-04-16T12:40:34;8.23;;;5.53;;
7965;SDS011;4028;43.272;26.932;2023-04-16T12:43:00;9.13;;;5.73;;
7965;SDS011;4028;43.272;26.932;2023-04-16T12:45:26;8.77;;;5.17;;
7965;SDS011;4028;43.272;26.932;2023-04-16T12:47:52;8.10;;;5.30;;
7965;SDS011;4028;43.272;26.932;2023-04-16T12:50:17;6.60;;;4.87;;
7965;SDS011;4028;43.272;26.932;2023-04-16T12:52:43;9.07;;;4.80;;
7965;SDS011;4028;43.272;26.932;2023-04-16T12:55:08;6.67;;;3.80;;
7965;SDS011;4028;43.272;26.932;2023-04-16T12:57:34;5.87;;;3.60;;
7965;SDS011;4028;43.272;26.932;2023-04-16T13:00:00;6.87;;;4.03;;
7965;SDS011;4028;43.272;26.932;2023-04-16T13:02:26;5.30;;;4.80;;
7965;SDS011;4028;43.272;26.932;2023-04-16T13:04:51;7.10;;;5.37;;
7965;SDS011;4028;43.272;26.932;2023-04-16T13:07:18;9.83;;;5.93;;
7965;SDS011;4028;43.272;26.932;2023-04-16T13:09:44;8.60;;;4.67;;
7965;SDS011;4028;43.272;26.932;2023-04-16T13:12:10;6.03;;;4.37;;
7965;SDS011;4028;43.272;26.932;2023-04-16T13:14:36;5.68;;;4.90;;
7965;SDS011;4028;43.272;26.932;2023-04-16T13:17:01;6.65;;;4.63;;
7965;SDS011;4028;43.272;26.932;2023-04-16T13:19:28;8.23;;;4.10;;
7965;SDS011;4028;43.272;26.932;2023-04-16T13:21:54;6.57;;;3.85;;
7965;SDS011;4028;43.272;26.932;2023-04-16T13:24:19;5.30;;;3.80;;
7965;SDS011;4028;43.272;26.932;2023-04-16T13:26:45;5.25;;;3.85;;
7965;SDS011;4028;43.272;26.932;2023-04-16T13:29:10;5.35;;;4.10;;
7965;SDS011;4028;43.272;26.932;2023-04-16T13:31:36;7.82;;;3.67;;
7965;SDS011;4028;43.272;26.932;2023-04-16T13:34:02;6.32;;;3.67;;
7965;SDS011;4028;43.272;26.932;2023-04-16T13:36:28;6.72;;;3.50;;
7965;SDS011;4028;43.272;26.932;2023-04-16T13:38:56;6.00;;;3.38;;
7965;SDS011;4028;43.272;26.932;2023-04-16T13:41:22;5.35;;;3.60;;
7965;SDS011;4028;43.272;26.932;2023-04-16T13:43:48;5.15;;;3.63;;
7965;SDS011;4028;43.272;26.932;2023-04-16T13:46:14;5.80;;;3.60;;
7965;SDS011;4028;43.272;26.932;2023-04-16T13:48:44;5.35;;;4.00;;
7965;SDS011;4028;43.272;26.932;2023-04-16T13:51:15;5.13;;;3.40;;
7965;SDS011;4028;43.272;26.932;2023-04-16T13:53:41;4.25;;;3.67;;
7965;SDS011;4028;43.272;26.932;2023-04-16T13:56:06;5.22;;;4.03;;
7965;SDS011;4028;43.272;26.932;2023-04-16T13:58:32;5.03;;;3.58;;
7965;SDS011;4028;43.272;26.932;2023-04-16T14:00:58;4.40;;;3.70;;
7965;SDS011;4028;43.272;26.932;2023-04-16T14:03:24;4.10;;;3.70;;
7965;SDS011;4028;43.272;26.932;2023-04-16T14:05:50;5.75;;;4.03;;
7965;SDS011;4028;43.272;26.932;2023-04-16T14:08:16;4.35;;;3.95;;
7965;SDS011;4028;43.272;26.932;2023-04-16T14:10:41;5.00;;;3.67;;
7965;SDS011;4028;43.272;26.932;2023-04-16T14:13:07;5.40;;;4.03;;
7965;SDS011;4028;43.272;26.932;2023-04-16T14:15:33;4.35;;;3.90;;
7965;SDS011;4028;43.272;26.932;2023-04-16T14:17:58;7.07;;;3.45;;
7965;SDS011;4028;43.272;26.932;2023-04-16T14:20:25;4.15;;;3.75;;
7965;SDS011;4028;43.272;26.932;2023-04-16T14:22:50;5.07;;;3.95;;
7965;SDS011;4028;43.272;26.932;2023-04-16T14:25:16;4.75;;;3.65;;
7965;SDS011;4028;43.272;26.932;2023-04-16T14:27:41;4.15;;;3.75;;
7965;SDS011;4028;43.272;26.932;2023-04-16T14:30:07;4.32;;;3.90;;
7965;SDS011;4028;43.272;26.932;2023-04-16T14:32:32;4.80;;;3.85;;
7965;SDS011;4028;43.272;26.932;2023-04-16T14:34:58;5.78;;;4.03;;
7965;SDS011;4028;43.272;26.932;2023-04-16T14:37:23;5.45;;;3.40;;
7965;SDS011;4028;43.272;26.932;2023-04-16T14:39:50;5.65;;;3.42;;
7965;SDS011;4028;43.272;26.932;2023-04-16T14:42:15;4.57;;;3.63;;
7965;SDS011;4028;43.272;26.932;2023-04-16T14:44:41;4.80;;;3.22;;
7965;SDS011;4028;43.272;26.932;2023-04-16T14:47:06;3.88;;;3.33;;
7965;SDS011;4028;43.272;26.932;2023-04-16T14:49:32;4.47;;;3.22;;
7965;SDS011;4028;43.272;26.932;2023-04-16T14:51:59;4.78;;;3.30;;
7965;SDS011;4028;43.272;26.932;2023-04-16T14:54:26;5.57;;;3.33;;
7965;SDS011;4028;43.272;26.932;2023-04-16T14:56:52;4.07;;;3.20;;
7965;SDS011;4028;43.272;26.932;2023-04-16T14:59:17;6.55;;;3.10;;
7965;SDS011;4028;43.272;26.932;2023-04-16T15:01:43;3.60;;;3.10;;
7965;SDS011;4028;43.272;26.932;2023-04-16T15:04:09;3.60;;;3.30;;
7965;SDS011;4028;43.272;26.932;2023-04-16T15:06:34;3.17;;;2.85;;
7965;SDS011;4028;43.272;26.932;2023-04-16T15:09:00;6.55;;;3.85;;
7965;SDS011;4028;43.272;26.932;2023-04-16T15:11:26;3.83;;;3.35;;
7965;SDS011;4028;43.272;26.932;2023-04-16T15:13:52;5.90;;;3.13;;